1898 NOT_NAMED (1898297N15123)


IBTrACS version v04r00. Visit IBTrACS website for data access.
Please direct all questions to the IBTrACS Q and A forum

Storm track - Intensity - Wind Radii - Intensity Data - Source Data - All data

Summary Information

Storm ID 1898297N15123
Start Oct 23 16Z
Landfall Oct 24 16Z
End Oct 28 04Z
ATCF IDs
Track status Best track data.

Storm track plot

Map of storm track

Intensity plots

No Intensity information for this storm


Radial wind information

No radial wind information for this storm


Position and Intensity Table

BASIN ISO_TIME_________ NATURE LAT LON
degrees north degrees east
WP 1898-10-23 16:00:00 NR 15.40 123.20
WP 18:00:00 NR 15.39 123.10
WP 21:00:00 NR 15.39 122.94
WP 1898-10-24 00:00:00 NR 15.39 122.76
WP 03:00:00 NR 15.40 122.57
WP 04:00:00 NR 15.40 122.50
WP 06:00:00 NR 15.41 122.35
WP 09:00:00 NR 15.45 122.11
WP 12:00:00 NR 15.50 121.85
WP 15:00:00 NR 15.57 121.59
WP 16:00:00 NR 15.60 121.50
WP 18:00:00 NR 15.66 121.34
WP 21:00:00 NR 15.77 121.09
WP 1898-10-25 00:00:00 NR 15.90 120.84
WP 03:00:00 NR 16.05 120.59
WP 04:00:00 NR 16.10 120.50
WP 06:00:00 NR 16.20 120.32
WP 09:00:00 NR 16.36 120.04
WP 12:00:00 NR 16.54 119.76
WP 15:00:00 NR 16.73 119.49
WP 16:00:00 NR 16.80 119.40
WP 18:00:00 NR 16.93 119.24
WP 21:00:00 NR 17.13 119.01
WP 1898-10-26 00:00:00 NR 17.36 118.79
WP 03:00:00 NR 17.61 118.57
WP 04:00:00 NR 17.70 118.50
WP 06:00:00 NR 17.89 118.34
WP 09:00:00 NR 18.21 118.11
WP 12:00:00 NR 18.54 117.88
WP 15:00:00 NR 18.89 117.67
WP 16:00:00 NR 19.00 117.60
WP 18:00:00 NR 19.23 117.46
WP 21:00:00 NR 19.57 117.27
WP 1898-10-27 00:00:00 NR 19.91 117.09
WP 03:00:00 NR 20.21 116.94
WP 04:00:00 NR 20.30 116.90
WP 06:00:00 NR 20.46 116.83
WP 09:00:00 NR 20.67 116.75
WP 12:00:00 NR 20.86 116.69
WP 15:00:00 NR 21.04 116.62
WP 16:00:00 NR 21.10 116.60
WP 18:00:00 NR 21.22 116.55
WP 21:00:00 NR 21.42 116.45
WP 1898-10-28 00:00:00 NR 21.62 116.35
WP 03:00:00 NR 21.83 116.24
WP 04:00:00 NR 21.90 116.20

Source Information

Agency Information
USA
TOKYO
CMA
HKO
NEWDELHI
REUNION
BOM
NADI
WELLINGTON
DS824
TD9636 cons_worldwide_trop_cyclone_18710101-19891231-003:Line=1903
TD9635
NEUMANN
MLC

All available IBTrACS Data

SEASON BASIN SUBBASIN ISO_TIME_________ NATURE LAT LON DIST2LAND LANDFALL IFLAG USA SSHS TD9636 LAT TD9636 LON TD9636 STAGE STORM SPEED STORM DIR
Year degrees north degrees east km km 1 degrees north degrees east kts degrees
1898 WP MM 1898-10-23 16:00:00 NR 15.40 123.20 138 131 __________O___ -1 15.40 123.20 7 3 267
1898 WP MM 18:00:00 NR 15.39 123.10 131 116 __________P___ -1 15.39 123.10 7 3 267
1898 WP MM 21:00:00 NR 15.39 122.94 116 108 __________P___ -1 15.39 122.94 7 3 269
1898 WP MM 1898-10-24 00:00:00 NR 15.39 122.76 108 92 __________P___ -1 15.39 122.76 7 4 271
1898 WP MM 03:00:00 NR 15.40 122.57 92 85 __________P___ -1 15.40 122.57 7 4 273
1898 WP MM 04:00:00 NR 15.40 122.50 85 79 __________O___ -1 15.40 122.50 3 4 275
1898 WP MM 06:00:00 NR 15.41 122.35 79 63 __________P___ -1 15.41 122.35 3 5 277
1898 WP MM 09:00:00 NR 15.45 122.11 63 30 __________P___ -1 15.45 122.11 3 5 280
1898 WP MM 12:00:00 NR 15.50 121.85 30 10 __________P___ -1 15.50 121.85 3 5 284
1898 WP MM 15:00:00 NR 15.57 121.59 10 0 __________P___ -1 15.57 121.59 3 5 287
1898 WP MM 16:00:00 NR 15.60 121.50 0 0 __________O___ -1 15.60 121.50 4 5 291
1898 WP MM 18:00:00 NR 15.66 121.34 0 0 __________P___ -1 15.66 121.34 4 5 293
1898 WP MM 21:00:00 NR 15.77 121.09 0 0 __________P___ -1 15.77 121.09 4 5 297
1898 WP MM 1898-10-25 00:00:00 NR 15.90 120.84 0 0 __________P___ -1 15.90 120.84 4 6 300
1898 WP MM 03:00:00 NR 16.05 120.59 0 0 __________P___ -1 16.05 120.59 4 6 301
1898 WP MM 04:00:00 NR 16.10 120.50 0 0 __________O___ -1 16.10 120.50 4 6 300
1898 WP MM 06:00:00 NR 16.20 120.32 10 10 __________P___ -1 16.20 120.32 4 6 300
1898 WP MM 09:00:00 NR 16.36 120.04 15 11 __________P___ -1 16.36 120.04 4 6 302
1898 WP MM 12:00:00 NR 16.54 119.76 22 35 __________P___ -1 16.54 119.76 4 6 305
1898 WP MM 15:00:00 NR 16.73 119.49 55 55 __________P___ -1 16.73 119.49 4 6 307
1898 WP MM 16:00:00 NR 16.80 119.40 70 70 __________O___ -1 16.80 119.40 4 6 310
1898 WP MM 18:00:00 NR 16.93 119.24 92 92 __________P___ -1 16.93 119.24 4 6 311
1898 WP MM 21:00:00 NR 17.13 119.01 123 123 __________P___ -1 17.13 119.01 4 6 315
1898 WP MM 1898-10-26 00:00:00 NR 17.36 118.79 160 160 __________P___ -1 17.36 118.79 4 6 319
1898 WP MM 03:00:00 NR 17.61 118.57 180 180 __________P___ -1 17.61 118.57 4 7 321
1898 WP MM 04:00:00 NR 17.70 118.50 191 191 __________O___ -1 17.70 118.50 4 7 323
1898 WP MM 06:00:00 NR 17.89 118.34 214 214 __________P___ -1 17.89 118.34 4 8 324
1898 WP MM 09:00:00 NR 18.21 118.11 242 242 __________P___ -1 18.21 118.11 4 8 326
1898 WP MM 12:00:00 NR 18.54 117.88 273 277 __________P___ -1 18.54 117.88 4 8 328
1898 WP MM 15:00:00 NR 18.89 117.67 308 308 __________P___ -1 18.89 117.67 4 8 330
1898 WP MM 16:00:00 NR 19.00 117.60 321 321 __________O___ -1 19.00 117.60 4 8 331
1898 WP MM 18:00:00 NR 19.23 117.46 338 338 __________P___ -1 19.23 117.46 4 8 331
1898 WP MM 21:00:00 NR 19.57 117.27 372 340 __________P___ -1 19.57 117.27 4 8 333
1898 WP MM 1898-10-27 00:00:00 NR 19.91 117.09 340 301 __________P___ -1 19.91 117.09 4 7 334
1898 WP MM 03:00:00 NR 20.21 116.94 301 291 __________P___ -1 20.21 116.94 4 7 335
1898 WP MM 04:00:00 NR 20.30 116.90 291 266 __________O___ -1 20.30 116.90 4 6 338
1898 WP MM 06:00:00 NR 20.46 116.83 266 242 __________P___ -1 20.46 116.83 4 5 339
1898 WP MM 09:00:00 NR 20.67 116.75 242 221 __________P___ -1 20.67 116.75 4 4 341
1898 WP MM 12:00:00 NR 20.86 116.69 221 207 __________P___ -1 20.86 116.69 4 4 342
1898 WP MM 15:00:00 NR 21.04 116.62 207 196 __________P___ -1 21.04 116.62 4 4 341
1898 WP MM 16:00:00 NR 21.10 116.60 196 182 __________O___ -1 21.10 116.60 4 4 340
1898 WP MM 18:00:00 NR 21.22 116.55 182 161 __________P___ -1 21.22 116.55 4 4 337
1898 WP MM 21:00:00 NR 21.42 116.45 161 133 __________P___ -1 21.42 116.45 4 4 335
1898 WP MM 1898-10-28 00:00:00 NR 21.62 116.35 133 108 __________P___ -1 21.62 116.35 4 5 334
1898 WP MM 03:00:00 NR 21.83 116.24 108 98 __________P___ -1 21.83 116.24 4 5 333
1898 WP MM 04:00:00 NR 21.90 116.20 98 __________O___ -1 21.90 116.20 7 5 331